Time;durP1;ratioP1;P1;durP2;ratioP2;P2;SDS_P1;SDS_P2;PMS_P1;PMS_P2;Temp;Humidity;BMP_temperature;BMP_pressure;BME280_temperature;BME280_humidity;BME280_pressure;Samples;Min_cycle;Max_cycle;Signal;HPM_P1;HPM_P2
2022/10/10 00:00:55;;;;;;;5.93;3.40;;;7.10;99.90;;;;;;4328040;28;10000461;-74
2022/10/10 00:03:20;;;;;;;6.53;3.40;;;7.20;99.90;;;;;;5027962;28;20478;-74
2022/10/10 00:05:46;;;;;;;3.65;2.35;;;7.20;99.90;;;;;;5024304;28;20048;-74
2022/10/10 00:08:12;;;;;;;3.47;2.47;;;7.20;99.90;;;;;;5020660;28;20058;-74
2022/10/10 00:10:37;;;;;;;3.22;2.30;;;7.20;99.90;;;;;;5023921;28;20043;-74
2022/10/10 00:13:04;;;;;;;5.55;2.30;;;7.20;99.90;;;;;;5025122;28;20045;-74
2022/10/10 00:15:30;;;;;;;5.05;2.63;;;7.20;99.90;;;;;;5025999;28;20531;-74
2022/10/10 00:17:56;;;;;;;3.15;1.98;;;7.20;99.90;;;;;;5021906;28;20115;-74
2022/10/10 00:20:22;;;;;;;4.07;2.22;;;7.20;99.90;;;;;;5024137;28;20115;-74
2022/10/10 00:22:47;;;;;;;5.03;2.40;;;7.20;99.90;;;;;;5024340;28;20033;-74
2022/10/10 00:25:14;;;;;;;3.03;2.35;;;7.30;99.90;;;;;;5029205;28;20086;-74
2022/10/10 00:27:39;;;;;;;3.97;2.33;;;7.30;99.90;;;;;;5022186;28;20025;-74
2022/10/10 00:30:08;;;;;;;3.40;2.47;;;7.30;99.90;;;;;;5023078;28;20036;-75
2022/10/10 00:32:34;;;;;;;3.45;2.20;;;7.30;99.90;;;;;;5023513;28;20388;-74
2022/10/10 00:35:00;;;;;;;4.05;2.28;;;7.30;99.90;;;;;;5024801;28;20026;-74
2022/10/10 00:37:26;;;;;;;4.57;2.25;;;7.30;99.90;;;;;;5023183;28;20482;-74
2022/10/10 00:39:51;;;;;;;4.60;2.30;;;7.30;99.90;;;;;;5034413;28;20086;-74
2022/10/10 00:42:18;;;;;;;2.95;2.13;;;7.30;99.90;;;;;;5023900;28;20021;-74
2022/10/10 00:45:05;;;;;;;3.50;2.00;;;7.20;99.90;;;;;;5024155;28;20112;-74
2022/10/10 00:47:30;;;;;;;4.18;2.17;;;7.30;99.90;;;;;;5023004;28;20052;-74
2022/10/10 00:49:56;;;;;;;4.40;2.20;;;7.20;99.90;;;;;;5027575;28;20060;-74
2022/10/10 00:52:22;;;;;;;3.60;2.10;;;7.10;99.90;;;;;;5029791;28;20029;-74
2022/10/10 00:54:48;;;;;;;3.90;2.40;;;7.00;99.90;;;;;;5034203;28;20684;-74
2022/10/10 00:57:14;;;;;;;4.72;2.42;;;6.90;99.90;;;;;;5039705;28;20029;-74
2022/10/10 00:59:42;;;;;;;4.65;2.72;;;6.80;99.90;;;;;;5026546;28;20412;-74
2022/10/10 01:02:08;;;;;;;4.15;2.70;;;6.80;99.90;;;;;;5032255;28;20017;-73
2022/10/10 01:04:36;;;;;;;4.30;2.58;;;6.70;99.90;;;;;;5029157;28;20397;-74
2022/10/10 01:07:08;;;;;;;4.65;2.40;;;6.70;99.90;;;;;;5028722;28;20040;-74
2022/10/10 01:09:37;;;;;;;4.53;2.73;;;6.70;99.90;;;;;;5030561;28;20029;-74
2022/10/10 01:12:08;;;;;;;3.28;2.55;;;6.70;99.90;;;;;;5030455;28;20033;-74
2022/10/10 01:14:40;;;;;;;3.53;2.47;;;6.70;99.90;;;;;;5031570;28;20029;-74
2022/10/10 01:17:38;;;;;;;4.35;2.60;;;6.70;99.90;;;;;;5026386;28;20030;-74
2022/10/10 01:20:15;;;;;;;4.47;2.58;;;6.60;99.90;;;;;;5038501;28;20102;-74
2022/10/10 01:23:02;;;;;;;3.58;2.30;;;6.60;99.90;;;;;;5031494;28;20029;-74
2022/10/10 01:25:50;;;;;;;3.63;2.30;;;6.60;99.90;;;;;;5033956;28;20017;-74
2022/10/10 01:28:25;;;;;;;6.75;2.50;;;6.60;99.90;;;;;;5018783;28;20056;-74
2022/10/10 01:30:51;;;;;;;2.42;2.10;;;6.60;99.90;;;;;;5024279;28;20131;-74
2022/10/10 01:33:30;;;;;;;3.30;2.17;;;6.60;99.90;;;;;;5024535;28;20497;-74
2022/10/10 01:36:20;;;;;;;2.92;2.10;;;6.60;99.90;;;;;;5024518;28;20037;-74
2022/10/10 01:39:01;;;;;;;2.20;2.00;;;6.60;99.90;;;;;;5024904;28;20021;-74
2022/10/10 01:41:49;;;;;;;3.25;2.42;;;6.60;99.90;;;;;;5025423;28;20520;-74
2022/10/10 01:44:15;;;;;;;2.53;2.10;;;6.60;99.90;;;;;;5035418;28;20021;-74
2022/10/10 01:46:41;;;;;;;4.53;2.50;;;6.60;99.90;;;;;;5036561;28;20041;-74
2022/10/10 01:49:07;;;;;;;3.58;2.45;;;6.60;99.90;;;;;;5021261;28;20014;-74
2022/10/10 01:51:44;;;;;;;4.50;2.13;;;6.60;99.90;;;;;;5029029;28;20038;-74
2022/10/10 01:54:34;;;;;;;3.92;2.65;;;6.60;99.90;;;;;;5033373;28;20035;-75
2022/10/10 01:57:21;;;;;;;3.17;2.30;;;6.50;99.90;;;;;;5026648;28;20196;-74
2022/10/10 02:00:07;;;;;;;4.75;2.95;;;6.50;99.90;;;;;;5017705;28;20043;-74
2022/10/10 02:02:40;;;;;;;4.53;3.15;;;6.40;99.90;;;;;;5021258;28;20040;-74
2022/10/10 02:05:27;;;;;;;3.83;2.17;;;6.40;99.90;;;;;;5023525;28;20025;-75
2022/10/10 02:08:02;;;;;;;4.15;2.65;;;6.30;99.90;;;;;;5022015;28;20076;-74
2022/10/10 02:10:31;;;;;;;3.78;2.70;;;6.30;99.90;;;;;;5015866;28;20033;-74
2022/10/10 02:13:00;;;;;;;4.57;3.30;;;6.30;99.90;;;;;;5020700;28;20079;-73
2022/10/10 02:15:30;;;;;;;4.45;2.90;;;6.30;99.90;;;;;;5020737;28;20060;-73
2022/10/10 02:17:57;;;;;;;3.40;2.67;;;6.30;99.90;;;;;;5022285;28;20112;-73
2022/10/10 02:20:25;;;;;;;3.38;2.70;;;6.30;99.90;;;;;;5027916;28;20021;-74
2022/10/10 02:22:53;;;;;;;5.75;2.80;;;6.20;99.90;;;;;;5032005;28;20025;-73
2022/10/10 02:25:27;;;;;;;4.60;3.15;;;6.20;99.90;;;;;;5029628;28;20052;-74
2022/10/10 02:27:59;;;;;;;5.22;2.97;;;6.30;99.90;;;;;;5025724;28;20037;-74
2022/10/10 02:30:25;;;;;;;6.80;3.03;;;6.30;99.90;;;;;;5027521;28;20052;-74
2022/10/10 02:32:57;;;;;;;4.15;2.70;;;6.30;99.90;;;;;;5022518;28;20025;-73
2022/10/10 02:35:37;;;;;;;4.88;3.40;;;6.20;99.90;;;;;;5028251;28;20029;-74
2022/10/10 02:38:06;;;;;;;7.10;4.20;;;6.20;99.90;;;;;;5035390;28;20138;-74
2022/10/10 02:40:34;;;;;;;6.35;4.10;;;6.10;99.90;;;;;;5030426;28;20124;-74
2022/10/10 02:43:03;;;;;;;5.07;3.80;;;6.10;99.90;;;;;;5027337;28;20645;-74
2022/10/10 02:45:31;;;;;;;4.28;3.25;;;6.00;99.90;;;;;;5031938;28;20474;-74
2022/10/10 02:48:01;;;;;;;6.97;4.05;;;6.00;99.90;;;;;;5035583;28;20071;-74
2022/10/10 02:50:28;;;;;;;6.93;3.90;;;6.00;99.90;;;;;;5026079;28;20493;-74
2022/10/10 02:52:54;;;;;;;4.60;3.58;;;6.00;99.90;;;;;;5029258;28;20562;-74
2022/10/10 02:55:20;;;;;;;6.68;4.32;;;5.90;99.90;;;;;;5027961;28;20033;-74
2022/10/10 02:57:45;;;;;;;6.18;4.32;;;5.90;99.90;;;;;;5030615;28;20128;-74
2022/10/10 03:00:12;;;;;;;6.43;3.97;;;6.00;99.90;;;;;;5027718;28;20049;-74
2022/10/10 03:02:38;;;;;;;5.45;4.38;;;5.90;99.90;;;;;;5032796;28;20113;-74
2022/10/10 03:05:04;;;;;;;5.78;4.18;;;5.90;99.90;;;;;;5032045;28;20033;-74
2022/10/10 03:07:30;;;;;;;7.10;4.40;;;5.90;99.90;;;;;;5032602;28;20036;-74
2022/10/10 03:09:56;;;;;;;6.03;4.40;;;6.00;99.90;;;;;;5031931;28;20036;-74
2022/10/10 03:12:21;;;;;;;6.65;4.88;;;6.00;99.90;;;;;;5034040;28;20031;-74
2022/10/10 03:14:47;;;;;;;5.93;4.25;;;6.10;99.90;;;;;;5033428;28;20037;-74
2022/10/10 03:17:13;;;;;;;6.43;4.28;;;6.10;99.90;;;;;;5032421;28;20033;-74
2022/10/10 03:19:38;;;;;;;6.60;4.40;;;6.10;99.90;;;;;;5030322;28;20104;-74
2022/10/10 03:22:04;;;;;;;5.15;3.92;;;6.10;99.90;;;;;;5029098;28;20532;-74
2022/10/10 03:24:30;;;;;;;7.95;4.10;;;6.10;99.90;;;;;;5029237;28;20557;-74
2022/10/10 03:26:55;;;;;;;6.68;4.10;;;6.10;99.90;;;;;;5026725;28;20028;-74
2022/10/10 03:29:21;;;;;;;5.28;3.80;;;6.20;99.90;;;;;;5031885;28;20053;-74
2022/10/10 03:31:47;;;;;;;6.10;3.83;;;6.20;99.90;;;;;;5027040;28;20037;-74
2022/10/10 03:34:12;;;;;;;5.20;3.67;;;6.20;99.90;;;;;;5028068;28;20064;-73
2022/10/10 03:36:38;;;;;;;6.90;4.22;;;6.20;99.90;;;;;;5030891;28;20067;-74
2022/10/10 03:39:04;;;;;;;6.85;4.18;;;6.20;99.90;;;;;;5028428;28;20017;-74
2022/10/10 03:41:29;;;;;;;6.45;4.70;;;6.10;99.90;;;;;;5028644;28;20489;-74
2022/10/10 03:43:55;;;;;;;8.40;4.63;;;6.00;99.90;;;;;;5027557;28;20029;-74
2022/10/10 03:46:20;;;;;;;5.30;3.78;;;6.00;99.90;;;;;;5026428;28;20028;-74
2022/10/10 03:48:46;;;;;;;9.38;3.92;;;5.80;99.90;;;;;;5033232;28;20036;-74
2022/10/10 03:51:12;;;;;;;8.23;4.97;;;5.80;99.90;;;;;;5028471;28;20370;-74
2022/10/10 03:53:38;;;;;;;11.10;6.55;;;5.80;99.90;;;;;;5028617;28;20075;-74
2022/10/10 03:56:04;;;;;;;8.35;6.05;;;5.80;99.90;;;;;;5029379;28;20647;-74
2022/10/10 03:58:30;;;;;;;10.30;6.40;;;;;;;;;;5028603;28;20155;-74
2022/10/10 04:00:58;;;;;;;10.77;6.10;;;5.50;99.90;;;;;;5028359;28;20029;-74
2022/10/10 04:03:24;;;;;;;12.20;6.40;;;5.40;99.90;;;;;;5025515;28;20539;-74
2022/10/10 04:05:49;;;;;;;9.65;6.20;;;5.30;99.90;;;;;;5030108;28;20025;-74
2022/10/10 04:08:15;;;;;;;14.13;7.22;;;5.20;99.90;;;;;;5027374;28;20025;-74
2022/10/10 04:10:41;;;;;;;10.25;7.07;;;5.20;99.90;;;;;;5027800;28;20038;-74
2022/10/10 04:13:07;;;;;;;10.43;6.72;;;5.10;99.90;;;;;;5029696;28;20033;-74
2022/10/10 04:15:32;;;;;;;8.73;5.88;;;5.00;99.90;;;;;;5024513;28;20029;-74
2022/10/10 04:17:59;;;;;;;11.85;6.85;;;5.00;99.90;;;;;;5033002;28;20048;-74
2022/10/10 04:20:25;;;;;;;9.80;6.45;;;5.00;99.90;;;;;;5026334;28;20038;-74
2022/10/10 04:22:50;;;;;;;11.23;6.80;;;5.00;99.90;;;;;;5027013;28;20032;-74
2022/10/10 04:25:17;;;;;;;10.13;6.95;;;5.00;99.90;;;;;;5028584;28;20393;-74
2022/10/10 04:27:42;;;;;;;9.57;7.03;;;5.00;99.90;;;;;;5033786;28;20504;-74
2022/10/10 04:30:09;;;;;;;11.43;7.40;;;5.00;99.90;;;;;;5029241;28;20108;-74
2022/10/10 04:32:36;;;;;;;10.05;6.55;;;5.10;99.90;;;;;;5028420;28;20120;-74
2022/10/10 04:35:02;;;;;;;8.10;6.25;;;5.10;99.90;;;;;;5027993;28;20069;-74
2022/10/10 04:37:28;;;;;;;11.70;8.27;;;5.10;99.90;;;;;;5028357;28;20028;-74
2022/10/10 04:39:54;;;;;;;12.43;8.00;;;5.10;99.90;;;;;;5026106;28;20029;-74
2022/10/10 04:42:19;;;;;;;13.60;8.70;;;5.10;99.90;;;;;;5026301;28;20117;-74
2022/10/10 04:44:45;;;;;;;13.15;8.93;;;5.20;99.90;;;;;;5032217;28;20068;-73
2022/10/10 04:47:11;;;;;;;10.57;7.93;;;5.20;99.90;;;;;;5031240;28;20082;-74
2022/10/10 04:49:37;;;;;;;10.38;8.05;;;5.30;99.90;;;;;;5030039;28;20037;-74
2022/10/10 04:52:03;;;;;;;9.68;8.18;;;5.40;99.90;;;;;;5030558;28;20443;-74
2022/10/10 04:54:29;;;;;;;10.18;7.47;;;5.40;99.90;;;;;;5035145;28;20026;-74
2022/10/10 04:56:54;;;;;;;10.63;7.75;;;5.50;99.90;;;;;;5028690;28;20230;-73
2022/10/10 04:59:20;;;;;;;10.20;7.95;;;5.50;99.90;;;;;;5025248;28;20112;-74
2022/10/10 05:01:45;;;;;;;8.32;7.43;;;5.50;99.90;;;;;;5029827;28;20534;-74
2022/10/10 05:04:12;;;;;;;11.55;7.85;;;5.60;99.90;;;;;;5025361;28;20544;-74
2022/10/10 05:06:38;;;;;;;9.35;7.15;;;5.50;99.90;;;;;;5027742;28;20751;-74
2022/10/10 05:09:03;;;;;;;9.95;7.63;;;5.50;99.90;;;;;;5027745;28;20258;-74
2022/10/10 05:11:29;;;;;;;10.32;7.25;;;5.50;99.90;;;;;;5027670;28;20037;-74
2022/10/10 05:13:54;;;;;;;10.93;6.97;;;5.40;99.90;;;;;;5023513;28;20127;-74
2022/10/10 05:16:20;;;;;;;11.15;7.55;;;5.30;99.90;;;;;;5031368;28;20061;-74
2022/10/10 05:18:46;;;;;;;12.60;7.90;;;5.20;99.90;;;;;;5031359;28;20066;-74
2022/10/10 05:21:11;;;;;;;10.05;7.60;;;5.20;99.90;;;;;;5028510;28;20533;-74
2022/10/10 05:23:40;;;;;;;8.55;7.53;;;5.20;99.90;;;;;;5038545;28;20021;-74
2022/10/10 05:26:05;;;;;;;9.43;7.75;;;5.10;99.90;;;;;;5028816;28;20486;-74
2022/10/10 05:28:34;;;;;;;9.63;7.78;;;5.10;99.90;;;;;;5034640;28;20052;-74
2022/10/10 05:30:59;;;;;;;12.90;8.85;;;5.20;99.90;;;;;;5032513;28;20386;-74
2022/10/10 05:33:25;;;;;;;10.95;8.32;;;5.20;99.90;;;;;;5031193;28;20040;-74
2022/10/10 05:35:51;;;;;;;12.10;8.63;;;5.30;99.90;;;;;;5027519;28;20022;-74
2022/10/10 05:38:16;;;;;;;10.88;8.45;;;5.20;99.90;;;;;;5029511;28;20028;-74
2022/10/10 05:40:43;;;;;;;12.70;8.52;;;5.20;99.90;;;;;;5028544;28;20056;-74
2022/10/10 05:43:09;;;;;;;10.98;8.43;;;5.20;99.90;;;;;;5029429;28;20087;-74
2022/10/10 05:45:35;;;;;;;13.75;9.70;;;5.20;99.90;;;;;;5032036;28;20029;-74
2022/10/10 05:48:00;;;;;;;10.95;9.07;;;5.10;99.90;;;;;;5037999;28;20025;-74
2022/10/10 05:50:33;;;;;;;12.68;8.98;;;5.10;99.90;;;;;;5034050;28;20025;-74
2022/10/10 05:52:59;;;;;;;13.35;8.75;;;5.10;99.90;;;;;;5035888;28;20026;-74
2022/10/10 05:55:24;;;;;;;12.52;8.65;;;5.10;99.90;;;;;;5028205;28;20141;-74
2022/10/10 05:57:50;;;;;;;12.18;9.30;;;5.00;99.90;;;;;;5029649;28;20013;-73
2022/10/10 06:00:16;;;;;;;15.43;9.18;;;4.90;99.90;;;;;;5027000;28;20032;-73
2022/10/10 06:02:41;;;;;;;15.32;9.40;;;4.90;99.90;;;;;;5021900;28;20028;-74
2022/10/10 06:05:07;;;;;;;12.35;8.63;;;4.90;99.90;;;;;;5032484;28;20067;-73
2022/10/10 06:07:33;;;;;;;13.57;9.95;;;4.90;99.90;;;;;;5027482;28;20040;-73
2022/10/10 06:09:59;;;;;;;54.10;29.60;;;4.90;99.90;;;;;;5024127;28;20037;-73
2022/10/10 06:12:25;;;;;;;50.42;30.75;;;4.90;99.90;;;;;;5030097;28;20033;-73
2022/10/10 06:14:50;;;;;;;44.38;26.10;;;4.80;99.90;;;;;;5025932;28;20045;-73
2022/10/10 06:17:16;;;;;;;29.35;19.50;;;4.80;99.90;;;;;;5015837;28;20038;-73
2022/10/10 06:19:41;;;;;;;22.67;15.50;;;4.90;99.90;;;;;;5035388;28;20165;-73
2022/10/10 06:22:07;;;;;;;14.90;11.38;;;4.90;99.90;;;;;;5022878;28;20060;-74
2022/10/10 06:24:33;;;;;;;13.18;10.38;;;5.00;99.90;;;;;;5029114;28;20029;-74
2022/10/10 06:26:59;;;;;;;14.10;10.90;;;5.10;99.90;;;;;;5029682;28;20119;-74
2022/10/10 06:29:25;;;;;;;12.43;10.07;;;5.20;99.90;;;;;;5025044;28;20049;-74
2022/10/10 06:31:51;;;;;;;12.95;10.18;;;5.20;99.90;;;;;;5033564;28;20075;-74
2022/10/10 06:34:17;;;;;;;15.70;10.07;;;5.20;99.90;;;;;;5033431;28;20099;-74
2022/10/10 06:36:42;;;;;;;14.15;9.60;;;5.30;99.90;;;;;;5036343;28;20420;-74
2022/10/10 06:39:08;;;;;;;12.13;9.57;;;5.30;99.90;;;;;;5028838;28;20148;-74
2022/10/10 06:41:33;;;;;;;10.68;8.45;;;5.30;99.90;;;;;;5032562;28;20112;-74
2022/10/10 06:43:59;;;;;;;10.82;7.90;;;5.30;99.90;;;;;;5028397;28;20113;-74
2022/10/10 06:46:25;;;;;;;12.48;7.38;;;5.40;99.90;;;;;;5033886;28;20079;-74
2022/10/10 06:48:51;;;;;;;10.05;7.82;;;5.40;99.90;;;;;;5030140;28;20041;-74
2022/10/10 06:51:16;;;;;;;12.75;7.53;;;5.50;99.90;;;;;;5033960;28;20032;-74
2022/10/10 06:53:43;;;;;;;9.15;7.22;;;5.50;99.90;;;;;;5034950;28;20489;-74
2022/10/10 06:56:16;;;;;;;9.35;7.43;;;5.50;99.90;;;;;;5025654;28;20056;-74
2022/10/10 06:58:42;;;;;;;10.40;8.13;;;5.50;99.90;;;;;;5033284;28;20030;-74
2022/10/10 07:01:09;;;;;;;9.70;7.68;;;5.50;99.90;;;;;;5027846;28;20083;-74
2022/10/10 07:03:35;;;;;;;12.32;8.07;;;5.50;99.90;;;;;;5038735;28;20025;-74
2022/10/10 07:06:02;;;;;;;12.00;8.05;;;5.50;99.90;;;;;;5033664;28;20108;-74
2022/10/10 07:08:28;;;;;;;10.48;8.48;;;5.50;99.90;;;;;;5030358;28;20025;-73
2022/10/10 07:10:55;;;;;;;10.88;8.50;;;5.50;99.90;;;;;;5034339;28;20044;-73
2022/10/10 07:13:21;;;;;;;12.15;8.27;;;5.60;99.90;;;;;;5037525;28;20013;-73
2022/10/10 07:15:47;;;;;;;11.80;8.45;;;5.60;99.90;;;;;;5030169;28;20409;-73
2022/10/10 07:18:13;;;;;;;10.40;8.02;;;5.60;99.90;;;;;;5027061;28;20017;-73
2022/10/10 07:20:39;;;;;;;9.75;7.47;;;5.70;99.90;;;;;;5041042;28;20484;-73
2022/10/10 07:23:04;;;;;;;8.85;7.95;;;5.70;99.90;;;;;;5030291;28;20022;-73
2022/10/10 07:25:31;;;;;;;10.38;7.93;;;5.80;99.90;;;;;;5029218;28;20440;-73
2022/10/10 07:27:57;;;;;;;10.05;7.65;;;5.80;99.90;;;;;;5031617;28;20025;-73
2022/10/10 07:30:23;;;;;;;10.23;8.02;;;5.90;99.90;;;;;;5042294;28;20033;-73
2022/10/10 07:32:51;;;;;;;12.00;8.82;;;5.90;99.90;;;;;;5045860;28;20052;-73
2022/10/10 07:35:17;;;;;;;11.38;8.23;;;5.90;99.90;;;;;;5032647;28;20037;-73
2022/10/10 07:37:43;;;;;;;10.30;8.18;;;6.00;99.90;;;;;;5031097;28;20078;-73
2022/10/10 07:40:09;;;;;;;10.00;7.95;;;6.10;99.90;;;;;;5036039;28;20116;-73
2022/10/10 07:42:36;;;;;;;10.45;7.35;;;6.20;99.90;;;;;;5040566;28;20096;-73
2022/10/10 07:45:02;;;;;;;9.23;7.47;;;6.20;99.90;;;;;;5038018;28;20405;-73
2022/10/10 07:47:27;;;;;;;17.35;12.77;;;6.30;99.90;;;;;;5032796;28;20207;-73
2022/10/10 07:49:53;;;;;;;20.05;12.98;;;6.60;99.90;;;;;;5037868;28;20435;-73
2022/10/10 07:52:19;;;;;;;13.32;9.88;;;6.70;99.90;;;;;;5042735;28;20029;-74
2022/10/10 07:54:44;;;;;;;14.40;9.80;;;6.80;99.90;;;;;;5047188;28;20029;-74
2022/10/10 07:57:10;;;;;;;14.63;10.35;;;6.90;99.90;;;;;;5032600;28;20021;-73
2022/10/10 07:59:36;;;;;;;12.00;9.60;;;7.10;99.90;;;;;;5039727;28;20504;-73
2022/10/10 08:02:02;;;;;;;15.70;9.80;;;7.30;99.90;;;;;;5034812;28;20086;-73
2022/10/10 08:04:28;;;;;;;12.75;9.52;;;7.40;99.90;;;;;;5032291;28;20056;-73
2022/10/10 08:06:53;;;;;;;15.38;10.15;;;7.30;99.90;;;;;;5025365;28;20030;-74
2022/10/10 08:09:19;;;;;;;13.30;9.32;;;7.40;99.90;;;;;;5025983;28;20104;-74
2022/10/10 08:11:44;;;;;;;13.48;8.25;;;7.60;99.90;;;;;;5034962;28;20067;-74
2022/10/10 08:14:10;;;;;;;12.98;8.18;;;7.70;99.90;;;;;;5038384;28;20523;-74
2022/10/10 08:16:36;;;;;;;11.70;7.07;;;7.90;99.90;;;;;;5033270;28;20048;-74
2022/10/10 08:19:01;;;;;;;16.23;6.90;;;8.10;99.90;;;;;;5036984;28;20026;-74
2022/10/10 08:21:27;;;;;;;10.88;5.18;;;8.20;99.90;;;;;;5031790;28;20025;-74
2022/10/10 08:23:52;;;;;;;18.30;6.45;;;8.40;99.90;;;;;;5046290;28;20033;-74
2022/10/10 08:26:18;;;;;;;14.00;6.53;;;8.50;99.90;;;;;;5036809;28;20121;-73
2022/10/10 08:28:44;;;;;;;11.70;6.80;;;8.70;99.90;;;;;;5046589;28;20045;-73
2022/10/10 08:31:13;;;;;;;10.27;6.28;;;8.80;99.90;;;;;;5029230;28;20405;-73
2022/10/10 08:33:40;;;;;;;10.38;6.03;;;8.90;99.90;;;;;;5040842;28;20083;-73
2022/10/10 08:36:08;;;;;;;12.35;6.40;;;9.00;99.90;;;;;;5031684;28;20489;-73
2022/10/10 08:38:34;;;;;;;10.95;6.07;;;9.20;99.90;;;;;;5030149;28;20457;-73
2022/10/10 08:41:06;;;;;;;8.60;5.88;;;9.40;99.90;;;;;;5031904;28;20020;-73
2022/10/10 08:43:43;;;;;;;10.30;5.25;;;9.50;99.90;;;;;;5042498;28;20466;-73
2022/10/10 08:46:17;;;;;;;7.25;5.43;;;9.60;99.90;;;;;;5035810;28;20029;-73
2022/10/10 08:48:45;;;;;;;8.85;5.55;;;9.70;99.90;;;;;;5029960;28;20069;-73
2022/10/10 08:51:19;;;;;;;10.07;6.35;;;9.80;99.90;;;;;;5029359;28;20385;-73
2022/10/10 08:53:50;;;;;;;7.40;5.63;;;9.90;99.90;;;;;;5029030;28;20064;-73
2022/10/10 08:56:22;;;;;;;9.40;6.05;;;10.10;99.90;;;;;;5032437;28;20034;-73
2022/10/10 08:58:54;;;;;;;14.43;5.82;;;10.20;99.90;;;;;;5029320;28;20022;-73
2022/10/10 09:01:23;;;;;;;8.43;5.80;;;10.30;99.90;;;;;;5031532;28;20034;-74
2022/10/10 09:03:54;;;;;;;6.95;5.45;;;10.40;99.90;;;;;;5027723;28;20121;-74
2022/10/10 09:06:38;;;;;;;12.13;6.05;;;10.50;99.90;;;;;;5028273;28;20584;-74
2022/10/10 09:09:09;;;;;;;11.80;7.57;;;10.60;99.90;;;;;;5028416;28;20033;-74
2022/10/10 09:11:51;;;;;;;11.32;5.90;;;10.70;99.90;;;;;;5027598;28;20635;-74
2022/10/10 09:14:43;;;;;;;10.85;6.15;;;10.90;99.90;;;;;;5038543;28;20032;-74
2022/10/10 09:17:46;;;;;;;8.48;6.10;;;11.00;99.90;;;;;;5037351;28;20018;-74
2022/10/10 09:20:50;;;;;;;10.75;6.30;;;11.10;99.90;;;;;;5028852;28;20333;-74
2022/10/10 09:23:28;;;;;;;10.07;6.30;;;11.30;99.90;;;;;;5030030;28;20041;-74
2022/10/10 09:26:00;;;;;;;9.45;7.75;;;11.40;99.90;;;;;;5040017;28;20564;-74
2022/10/10 09:28:35;;;;;;;10.60;6.65;;;11.50;99.90;;;;;;5039147;28;20137;-74
2022/10/10 09:31:04;;;;;;;9.65;6.57;;;11.60;99.90;;;;;;5028156;28;20044;-74
2022/10/10 09:33:44;;;;;;;11.10;7.40;;;11.80;99.90;;;;;;5030468;28;20025;-74
2022/10/10 09:36:15;;;;;;;14.77;12.30;;;11.90;99.90;;;;;;5034717;28;20467;-73
2022/10/10 09:38:46;;;;;;;16.75;10.88;;;12.00;99.90;;;;;;5027999;28;20025;-74
2022/10/10 09:41:14;;;;;;;19.25;12.63;;;12.20;99.90;;;;;;5032887;28;20052;-73
2022/10/10 09:43:41;;;;;;;12.80;8.98;;;12.30;99.90;;;;;;5031944;28;20024;-73
2022/10/10 09:46:07;;;;;;;12.75;9.38;;;12.40;99.90;;;;;;5022802;28;20227;-73
2022/10/10 09:48:37;;;;;;;11.88;8.40;;;12.50;99.90;;;;;;5030489;28;20072;-73
2022/10/10 09:51:07;;;;;;;11.23;6.63;;;12.60;99.90;;;;;;5024871;28;20113;-74
2022/10/10 09:53:33;;;;;;;8.77;6.35;;;12.80;99.90;;;;;;5029394;28;20029;-73
2022/10/10 09:55:59;;;;;;;15.95;9.13;;;12.90;99.90;;;;;;5041603;28;20504;-74
2022/10/10 09:58:43;;;;;;;13.93;9.13;;;13.00;99.90;;;;;;5036763;28;20040;-73
2022/10/10 10:01:14;;;;;;;16.35;10.35;;;;;;;;;;5030371;28;20135;-74
2022/10/10 10:03:40;;;;;;;13.25;8.52;;;13.40;99.90;;;;;;5036294;28;20905;-74
2022/10/10 10:06:11;;;;;;;13.98;9.15;;;13.30;99.90;;;;;;5031057;28;20028;-74
2022/10/10 10:08:37;;;;;;;9.85;7.25;;;13.40;99.90;;;;;;5038364;28;20112;-74
2022/10/10 10:11:04;;;;;;;20.25;14.23;;;13.40;99.90;;;;;;5026058;28;20040;-74
2022/10/10 10:13:32;;;;;;;13.63;10.15;;;13.50;99.90;;;;;;5035972;28;20040;-74
2022/10/10 10:16:07;;;;;;;10.32;7.75;;;13.70;99.90;;;;;;5035724;28;20022;-74
2022/10/10 10:18:40;;;;;;;11.80;6.45;;;13.70;99.90;;;;;;5038185;28;20679;-74
2022/10/10 10:21:24;;;;;;;12.48;8.75;;;13.80;99.90;;;;;;5031543;28;20390;-74
2022/10/10 10:24:13;;;;;;;12.63;6.28;;;13.90;99.90;;;;;;5042753;28;20627;-74
2022/10/10 10:26:43;;;;;;;13.85;6.90;;;14.00;99.90;;;;;;5042101;28;20037;-74
2022/10/10 10:29:30;;;;;;;12.18;6.32;;;14.20;99.90;;;;;;5038921;28;20073;-74
2022/10/10 10:32:26;;;;;;;15.55;6.38;;;14.20;99.90;;;;;;5029081;28;20030;-74
2022/10/10 10:34:58;;;;;;;16.63;5.45;;;14.30;99.90;;;;;;5029042;28;20114;-75
2022/10/10 10:38:05;;;;;;;7.03;4.80;;;14.40;99.90;;;;;;5031733;28;20554;-74
2022/10/10 10:40:43;;;;;;;6.95;4.80;;;14.50;99.90;;;;;;5029823;28;20029;-74
2022/10/10 10:43:56;;;;;;;11.88;5.60;;;14.60;99.90;;;;;;5041810;28;20552;-75
2022/10/10 10:46:52;;;;;;;12.13;5.53;;;14.70;99.90;;;;;;5033244;28;20037;-74
2022/10/10 10:49:35;;;;;;;19.30;7.10;;;14.80;99.90;;;;;;5026848;28;20127;-74
2022/10/10 10:52:12;;;;;;;10.50;6.65;;;15.00;99.90;;;;;;5026532;28;20037;-74
2022/10/10 10:54:52;;;;;;;14.05;7.00;;;15.10;99.90;;;;;;5029761;28;20025;-73
2022/10/10 10:57:38;;;;;;;13.05;6.75;;;15.20;99.90;;;;;;5025800;28;20115;-74
2022/10/10 11:00:13;;;;;;;11.95;5.78;;;15.20;99.90;;;;;;5026652;28;20041;-74
2022/10/10 11:03:01;;;;;;;13.05;4.70;;;15.40;99.90;;;;;;5029004;28;20040;-74
2022/10/10 11:05:36;;;;;;;9.82;4.80;;;15.50;99.90;;;;;;5030710;28;20080;-74
2022/10/10 11:08:41;;;;;;;13.15;5.03;;;15.50;99.90;;;;;;5030429;28;20025;-74
2022/10/10 11:11:36;;;;;;;14.57;4.80;;;15.70;99.90;;;;;;5036408;28;20072;-74
2022/10/10 11:14:38;;;;;;;10.05;4.68;;;15.70;99.90;;;;;;5040918;28;20033;-74
2022/10/10 11:17:20;;;;;;;7.63;4.45;;;15.70;99.90;;;;;;5040649;28;20083;-74
2022/10/10 11:19:55;;;;;;;11.57;4.70;;;15.80;99.90;;;;;;5033831;28;20048;-74
2022/10/10 11:22:32;;;;;;;12.75;5.93;;;15.80;99.90;;;;;;5044896;28;20289;-74
2022/10/10 11:25:07;;;;;;;12.52;5.80;;;15.90;99.90;;;;;;5041278;28;20037;-74
2022/10/10 11:27:50;;;;;;;10.05;5.63;;;15.70;99.90;;;;;;5034165;28;20037;-74
2022/10/10 11:30:21;;;;;;;10.38;5.30;;;15.60;99.90;;;;;;5035338;28;20099;-74
2022/10/10 11:32:51;;;;;;;10.27;5.18;;;15.60;99.90;;;;;;5030051;28;20026;-75
2022/10/10 11:35:28;;;;;;;9.15;4.20;;;15.70;99.90;;;;;;5036027;28;20116;-74
2022/10/10 11:38:02;;;;;;;9.90;4.20;;;15.80;99.90;;;;;;5047691;28;20029;-75
2022/10/10 11:40:36;;;;;;;8.10;4.13;;;16.00;99.90;;;;;;5039476;28;20025;-74
2022/10/10 11:43:07;;;;;;;13.50;4.07;;;16.10;99.90;;;;;;5041154;28;20058;-78
2022/10/10 11:45:43;;;;;;;11.70;3.95;;;16.40;99.90;;;;;;5048565;28;20052;-81
2022/10/10 11:48:26;;;;;;;8.02;3.83;;;16.50;99.90;;;;;;5049545;28;20041;-78
2022/10/10 11:51:01;;;;;;;9.43;3.70;;;16.50;99.90;;;;;;5044151;28;20444;-79
2022/10/10 11:53:39;;;;;;;11.18;3.70;;;16.50;99.90;;;;;;5039978;28;20041;-81
2022/10/10 11:56:12;;;;;;;8.18;3.88;;;16.60;99.90;;;;;;5029183;28;20025;-81
2022/10/10 11:58:45;;;;;;;;;;;16.70;99.90;;;;;;5035426;28;20168;-78
2022/10/10 12:01:35;;;;;;;10.52;3.83;;;16.80;99.90;;;;;;5041462;28;20607;-79
2022/10/10 12:04:01;;;;;;;11.07;4.22;;;17.00;99.90;;;;;;5034654;28;20033;-78
2022/10/10 12:06:34;;;;;;;10.30;3.90;;;17.10;99.90;;;;;;5041993;28;20076;-76
2022/10/10 12:09:03;;;;;;;7.10;3.70;;;17.20;99.90;;;;;;5048142;28;20048;-80
2022/10/10 12:11:55;;;;;;;6.25;3.70;;;17.40;99.90;;;;;;5033025;28;20030;-78
2022/10/10 12:14:24;;;;;;;8.43;3.50;;;17.40;99.90;;;;;;5037052;28;20045;-77
2022/10/10 12:16:50;;;;;;;9.63;3.88;;;17.50;99.90;;;;;;5024441;28;20183;-83
2022/10/10 12:19:21;;;;;;;11.93;3.33;;;17.50;99.90;;;;;;5032656;28;20025;-80
2022/10/10 12:22:03;;;;;;;12.35;3.47;;;17.60;99.90;;;;;;5038393;28;20021;-79
2022/10/10 12:24:32;;;;;;;12.30;3.83;;;17.60;99.90;;;;;;5029188;28;20107;-80
2022/10/10 12:26:58;;;;;;;10.82;3.47;;;17.70;99.90;;;;;;5036605;28;20025;-82
2022/10/10 12:29:47;;;;;;;6.53;3.33;;;17.70;99.90;;;;;;5032842;28;20049;-79
2022/10/10 12:32:12;;;;;;;8.15;3.20;;;17.80;99.90;;;;;;5034592;28;20033;-82
2022/10/10 12:34:59;;;;;;;12.13;3.70;;;17.70;99.90;;;;;;5032441;28;20030;-77
2022/10/10 12:37:33;;;;;;;9.07;4.28;;;17.70;99.90;;;;;;5031729;28;20061;-78
2022/10/10 12:40:16;;;;;;;10.73;4.05;;;17.70;99.90;;;;;;5030942;28;20095;-78
2022/10/10 12:42:45;;;;;;;9.13;3.67;;;17.80;99.90;;;;;;5028076;28;20055;-78
2022/10/10 12:45:29;;;;;;;10.10;3.95;;;18.00;99.90;;;;;;5027941;28;20049;-78
2022/10/10 12:47:57;;;;;;;13.20;3.30;;;18.10;99.90;;;;;;5041034;28;20515;-77
2022/10/10 12:50:25;;;;;;;11.40;3.30;;;18.20;99.90;;;;;;5038894;28;20037;-78
2022/10/10 12:53:01;;;;;;;6.72;3.25;;;18.30;99.90;;;;;;5024944;28;20029;-78
2022/10/10 12:55:39;;;;;;;7.65;3.30;;;18.40;99.90;;;;;;5036345;28;20627;-78
2022/10/10 12:58:09;;;;;;;13.60;3.85;;;18.40;99.90;;;;;;5031648;28;20390;-80
2022/10/10 13:00:41;;;;;;;7.68;3.38;;;18.50;99.90;;;;;;5027624;28;20025;-81
2022/10/10 13:03:37;;;;;;;8.93;3.20;;;18.60;99.90;;;;;;5028484;28;20033;-78
2022/10/10 13:06:35;;;;;;;14.52;3.08;;;18.70;99.90;;;;;;5039802;28;20068;-78